sensor_id;sensor_type;location;lat;lon;timestamp;temperature;humidity
36002;DHT22;22070;50.922;5.430;2022-08-19T00:01:47;18.20;99.90
36002;DHT22;22070;50.922;5.430;2022-08-19T00:04:14;18.10;99.90
36002;DHT22;22070;50.922;5.430;2022-08-19T00:06:44;18.10;99.90
36002;DHT22;22070;50.922;5.430;2022-08-19T00:09:12;18.10;99.90
36002;DHT22;22070;50.922;5.430;2022-08-19T00:11:39;17.90;99.90
36002;DHT22;22070;50.922;5.430;2022-08-19T00:14:07;17.90;99.90
36002;DHT22;22070;50.922;5.430;2022-08-19T00:16:36;17.80;99.90
36002;DHT22;22070;50.922;5.430;2022-08-19T00:19:02;17.70;99.90
36002;DHT22;22070;50.922;5.430;2022-08-19T00:21:28;17.80;99.90
36002;DHT22;22070;50.922;5.430;2022-08-19T00:23:56;18.00;99.90
36002;DHT22;22070;50.922;5.430;2022-08-19T00:26:27;18.00;99.90
36002;DHT22;22070;50.922;5.430;2022-08-19T00:28:53;18.00;99.90
36002;DHT22;22070;50.922;5.430;2022-08-19T00:31:19;18.00;99.90
36002;DHT22;22070;50.922;5.430;2022-08-19T00:33:46;17.90;99.90
36002;DHT22;22070;50.922;5.430;2022-08-19T00:36:11;18.00;99.90
36002;DHT22;22070;50.922;5.430;2022-08-19T00:38:39;18.00;99.90
36002;DHT22;22070;50.922;5.430;2022-08-19T00:41:09;17.90;99.90
36002;DHT22;22070;50.922;5.430;2022-08-19T00:43:35;17.90;99.90
36002;DHT22;22070;50.922;5.430;2022-08-19T00:46:01;17.80;99.90
36002;DHT22;22070;50.922;5.430;2022-08-19T00:48:31;17.70;99.90
36002;DHT22;22070;50.922;5.430;2022-08-19T00:50:57;17.80;99.90
36002;DHT22;22070;50.922;5.430;2022-08-19T00:53:26;17.80;99.90
36002;DHT22;22070;50.922;5.430;2022-08-19T00:55:55;17.70;99.90
36002;DHT22;22070;50.922;5.430;2022-08-19T00:58:26;17.70;99.90
36002;DHT22;22070;50.922;5.430;2022-08-19T01:00:53;17.60;99.90
36002;DHT22;22070;50.922;5.430;2022-08-19T01:03:20;17.60;99.90
36002;DHT22;22070;50.922;5.430;2022-08-19T01:05:47;17.50;99.90
36002;DHT22;22070;50.922;5.430;2022-08-19T01:08:15;17.40;99.90
36002;DHT22;22070;50.922;5.430;2022-08-19T01:10:46;17.30;99.90
36002;DHT22;22070;50.922;5.430;2022-08-19T01:13:15;17.40;99.90
36002;DHT22;22070;50.922;5.430;2022-08-19T01:15:45;17.50;99.90
36002;DHT22;22070;50.922;5.430;2022-08-19T01:18:13;17.60;99.90
36002;DHT22;22070;50.922;5.430;2022-08-19T01:20:40;17.70;99.90
36002;DHT22;22070;50.922;5.430;2022-08-19T01:23:06;17.70;99.90
36002;DHT22;22070;50.922;5.430;2022-08-19T01:25:44;17.50;99.90
36002;DHT22;22070;50.922;5.430;2022-08-19T01:28:17;17.30;99.90
36002;DHT22;22070;50.922;5.430;2022-08-19T01:30:43;17.20;99.90
36002;DHT22;22070;50.922;5.430;2022-08-19T01:33:09;17.20;99.90
36002;DHT22;22070;50.922;5.430;2022-08-19T01:35:35;17.20;99.90
36002;DHT22;22070;50.922;5.430;2022-08-19T01:38:03;17.30;99.90
36002;DHT22;22070;50.922;5.430;2022-08-19T01:40:35;17.30;99.90
36002;DHT22;22070;50.922;5.430;2022-08-19T01:43:02;17.20;99.90
36002;DHT22;22070;50.922;5.430;2022-08-19T01:45:29;17.30;99.90
36002;DHT22;22070;50.922;5.430;2022-08-19T01:47:55;17.10;99.90
36002;DHT22;22070;50.922;5.430;2022-08-19T01:50:21;17.20;99.90
36002;DHT22;22070;50.922;5.430;2022-08-19T01:52:46;17.30;99.90
36002;DHT22;22070;50.922;5.430;2022-08-19T01:55:16;17.30;99.90
36002;DHT22;22070;50.922;5.430;2022-08-19T01:57:46;17.20;99.90
36002;DHT22;22070;50.922;5.430;2022-08-19T02:00:16;17.10;99.90
36002;DHT22;22070;50.922;5.430;2022-08-19T02:02:43;17.00;99.90
36002;DHT22;22070;50.922;5.430;2022-08-19T02:05:09;17.00;99.90
36002;DHT22;22070;50.922;5.430;2022-08-19T02:07:36;16.80;99.90
36002;DHT22;22070;50.922;5.430;2022-08-19T02:10:07;16.90;99.90
36002;DHT22;22070;50.922;5.430;2022-08-19T02:12:33;16.80;99.90
36002;DHT22;22070;50.922;5.430;2022-08-19T02:14:59;16.80;99.90
36002;DHT22;22070;50.922;5.430;2022-08-19T02:17:27;16.70;99.90
36002;DHT22;22070;50.922;5.430;2022-08-19T02:19:54;17.00;99.90
36002;DHT22;22070;50.922;5.430;2022-08-19T02:22:21;17.00;99.90
36002;DHT22;22070;50.922;5.430;2022-08-19T02:24:46;17.00;99.90
36002;DHT22;22070;50.922;5.430;2022-08-19T02:27:13;17.00;99.90
36002;DHT22;22070;50.922;5.430;2022-08-19T02:29:39;17.00;99.90
36002;DHT22;22070;50.922;5.430;2022-08-19T02:32:05;17.00;99.90
36002;DHT22;22070;50.922;5.430;2022-08-19T02:34:30;17.00;99.90
36002;DHT22;22070;50.922;5.430;2022-08-19T02:36:56;16.90;99.90
36002;DHT22;22070;50.922;5.430;2022-08-19T02:39:21;17.00;99.90
36002;DHT22;22070;50.922;5.430;2022-08-19T02:41:47;16.90;99.90
36002;DHT22;22070;50.922;5.430;2022-08-19T02:44:14;17.00;99.90
36002;DHT22;22070;50.922;5.430;2022-08-19T02:46:39;17.00;99.90
36002;DHT22;22070;50.922;5.430;2022-08-19T02:49:07;16.90;99.90
36002;DHT22;22070;50.922;5.430;2022-08-19T02:51:38;16.80;99.90
36002;DHT22;22070;50.922;5.430;2022-08-19T02:54:06;16.70;99.90
36002;DHT22;22070;50.922;5.430;2022-08-19T02:56:35;16.60;99.90
36002;DHT22;22070;50.922;5.430;2022-08-19T02:59:01;16.70;99.90
36002;DHT22;22070;50.922;5.430;2022-08-19T03:01:31;16.60;99.90
36002;DHT22;22070;50.922;5.430;2022-08-19T03:03:59;16.70;99.90
36002;DHT22;22070;50.922;5.430;2022-08-19T03:06:26;16.70;99.90
36002;DHT22;22070;50.922;5.430;2022-08-19T03:08:52;16.70;99.90
36002;DHT22;22070;50.922;5.430;2022-08-19T03:11:24;16.70;99.90
36002;DHT22;22070;50.922;5.430;2022-08-19T03:13:51;16.70;99.90
36002;DHT22;22070;50.922;5.430;2022-08-19T03:16:19;16.70;99.90
36002;DHT22;22070;50.922;5.430;2022-08-19T03:18:45;16.70;99.90
36002;DHT22;22070;50.922;5.430;2022-08-19T03:21:23;16.80;99.90
36002;DHT22;22070;50.922;5.430;2022-08-19T03:23:53;16.60;99.90
36002;DHT22;22070;50.922;5.430;2022-08-19T03:26:19;16.70;99.90
36002;DHT22;22070;50.922;5.430;2022-08-19T03:28:46;16.70;99.90
36002;DHT22;22070;50.922;5.430;2022-08-19T03:31:19;16.80;99.90
36002;DHT22;22070;50.922;5.430;2022-08-19T03:33:46;16.80;99.90
36002;DHT22;22070;50.922;5.430;2022-08-19T03:36:23;16.80;99.90
36002;DHT22;22070;50.922;5.430;2022-08-19T03:38:54;16.80;99.90
36002;DHT22;22070;50.922;5.430;2022-08-19T03:41:27;16.70;99.90
36002;DHT22;22070;50.922;5.430;2022-08-19T03:43:53;16.50;99.90
36002;DHT22;22070;50.922;5.430;2022-08-19T03:46:21;16.40;99.90
36002;DHT22;22070;50.922;5.430;2022-08-19T03:48:50;16.30;99.90
36002;DHT22;22070;50.922;5.430;2022-08-19T03:51:25;16.30;99.90
36002;DHT22;22070;50.922;5.430;2022-08-19T03:53:53;16.30;99.90
36002;DHT22;22070;50.922;5.430;2022-08-19T03:56:19;16.20;99.90
36002;DHT22;22070;50.922;5.430;2022-08-19T03:58:45;16.20;99.90
36002;DHT22;22070;50.922;5.430;2022-08-19T04:01:13;16.10;99.90
36002;DHT22;22070;50.922;5.430;2022-08-19T04:03:40;16.10;99.90
36002;DHT22;22070;50.922;5.430;2022-08-19T04:08:35;16.20;99.90
36002;DHT22;22070;50.922;5.430;2022-08-19T04:11:01;16.20;99.90
36002;DHT22;22070;50.922;5.430;2022-08-19T04:13:26;16.20;99.90
36002;DHT22;22070;50.922;5.430;2022-08-19T04:15:53;16.20;99.90
36002;DHT22;22070;50.922;5.430;2022-08-19T04:18:18;16.20;99.90
36002;DHT22;22070;50.922;5.430;2022-08-19T04:20:46;16.30;99.90
36002;DHT22;22070;50.922;5.430;2022-08-19T04:23:13;16.60;99.90
36002;DHT22;22070;50.922;5.430;2022-08-19T04:25:41;16.50;99.90
36002;DHT22;22070;50.922;5.430;2022-08-19T04:28:08;16.40;99.90
36002;DHT22;22070;50.922;5.430;2022-08-19T04:30:46;16.20;99.90
36002;DHT22;22070;50.922;5.430;2022-08-19T04:33:14;16.10;99.90
36002;DHT22;22070;50.922;5.430;2022-08-19T04:35:45;16.00;99.90
36002;DHT22;22070;50.922;5.430;2022-08-19T04:38:11;16.10;99.90
36002;DHT22;22070;50.922;5.430;2022-08-19T04:40:49;16.10;99.90
36002;DHT22;22070;50.922;5.430;2022-08-19T04:43:35;16.10;99.90
36002;DHT22;22070;50.922;5.430;2022-08-19T04:46:11;16.00;99.90
36002;DHT22;22070;50.922;5.430;2022-08-19T04:48:38;15.80;99.90
36002;DHT22;22070;50.922;5.430;2022-08-19T04:51:08;15.80;99.90
36002;DHT22;22070;50.922;5.430;2022-08-19T04:53:36;15.70;99.90
36002;DHT22;22070;50.922;5.430;2022-08-19T04:56:10;15.60;99.90
36002;DHT22;22070;50.922;5.430;2022-08-19T04:58:38;15.60;99.90
36002;DHT22;22070;50.922;5.430;2022-08-19T05:01:04;15.70;99.90
36002;DHT22;22070;50.922;5.430;2022-08-19T05:03:30;15.80;99.90
36002;DHT22;22070;50.922;5.430;2022-08-19T05:06:04;15.70;99.90
36002;DHT22;22070;50.922;5.430;2022-08-19T05:08:34;15.80;99.90
36002;DHT22;22070;50.922;5.430;2022-08-19T05:11:12;15.90;99.90
36002;DHT22;22070;50.922;5.430;2022-08-19T05:13:38;16.00;99.90
36002;DHT22;22070;50.922;5.430;2022-08-19T05:16:04;16.00;99.90
36002;DHT22;22070;50.922;5.430;2022-08-19T05:18:30;16.00;99.90
36002;DHT22;22070;50.922;5.430;2022-08-19T05:21:16;16.00;99.90
36002;DHT22;22070;50.922;5.430;2022-08-19T05:24:01;16.20;99.90
36002;DHT22;22070;50.922;5.430;2022-08-19T05:26:27;16.30;99.90
36002;DHT22;22070;50.922;5.430;2022-08-19T05:28:54;16.40;99.90
36002;DHT22;22070;50.922;5.430;2022-08-19T05:31:20;16.40;99.90
36002;DHT22;22070;50.922;5.430;2022-08-19T05:33:46;16.50;99.90
36002;DHT22;22070;50.922;5.430;2022-08-19T05:36:12;16.40;99.90
36002;DHT22;22070;50.922;5.430;2022-08-19T05:38:38;16.50;99.90
36002;DHT22;22070;50.922;5.430;2022-08-19T05:41:13;16.60;99.90
36002;DHT22;22070;50.922;5.430;2022-08-19T05:43:39;16.70;99.90
36002;DHT22;22070;50.922;5.430;2022-08-19T05:46:06;16.70;99.90
36002;DHT22;22070;50.922;5.430;2022-08-19T05:48:35;16.70;99.90
36002;DHT22;22070;50.922;5.430;2022-08-19T05:51:07;16.90;99.90
36002;DHT22;22070;50.922;5.430;2022-08-19T05:53:34;17.00;99.90
36002;DHT22;22070;50.922;5.430;2022-08-19T05:56:12;17.00;99.90
36002;DHT22;22070;50.922;5.430;2022-08-19T05:58:38;17.10;99.90
36002;DHT22;22070;50.922;5.430;2022-08-19T06:01:09;17.20;99.90
36002;DHT22;22070;50.922;5.430;2022-08-19T06:03:36;17.30;99.90
36002;DHT22;22070;50.922;5.430;2022-08-19T06:06:06;17.30;99.90
36002;DHT22;22070;50.922;5.430;2022-08-19T06:08:33;17.40;99.90
36002;DHT22;22070;50.922;5.430;2022-08-19T06:11:13;17.40;99.90
36002;DHT22;22070;50.922;5.430;2022-08-19T06:13:39;17.50;99.90
36002;DHT22;22070;50.922;5.430;2022-08-19T06:16:05;17.40;99.90
36002;DHT22;22070;50.922;5.430;2022-08-19T06:18:30;17.50;99.90
36002;DHT22;22070;50.922;5.430;2022-08-19T06:20:56;17.50;99.90
36002;DHT22;22070;50.922;5.430;2022-08-19T06:23:22;17.50;99.90
36002;DHT22;22070;50.922;5.430;2022-08-19T06:25:47;17.60;99.90
36002;DHT22;22070;50.922;5.430;2022-08-19T06:28:13;17.60;99.90
36002;DHT22;22070;50.922;5.430;2022-08-19T06:30:39;17.60;99.90
36002;DHT22;22070;50.922;5.430;2022-08-19T06:33:04;17.50;99.90
36002;DHT22;22070;50.922;5.430;2022-08-19T06:35:31;17.60;99.90
36002;DHT22;22070;50.922;5.430;2022-08-19T06:37:56;17.70;99.90
36002;DHT22;22070;50.922;5.430;2022-08-19T06:40:22;17.80;99.90
36002;DHT22;22070;50.922;5.430;2022-08-19T06:42:48;17.90;99.90
36002;DHT22;22070;50.922;5.430;2022-08-19T06:45:14;17.90;99.90
36002;DHT22;22070;50.922;5.430;2022-08-19T06:47:40;18.00;99.90
36002;DHT22;22070;50.922;5.430;2022-08-19T06:50:12;18.10;99.90
36002;DHT22;22070;50.922;5.430;2022-08-19T06:52:38;18.10;99.90
36002;DHT22;22070;50.922;5.430;2022-08-19T06:55:05;18.10;99.90
36002;DHT22;22070;50.922;5.430;2022-08-19T06:57:30;18.20;99.90
36002;DHT22;22070;50.922;5.430;2022-08-19T06:59:58;18.30;99.90
36002;DHT22;22070;50.922;5.430;2022-08-19T07:02:25;18.60;99.90
36002;DHT22;22070;50.922;5.430;2022-08-19T07:04:52;18.60;99.90
36002;DHT22;22070;50.922;5.430;2022-08-19T07:07:19;18.70;99.90
36002;DHT22;22070;50.922;5.430;2022-08-19T07:09:46;18.80;99.90
36002;DHT22;22070;50.922;5.430;2022-08-19T07:12:13;19.00;99.90
36002;DHT22;22070;50.922;5.430;2022-08-19T07:14:41;19.10;99.90
36002;DHT22;22070;50.922;5.430;2022-08-19T07:17:10;19.20;99.90
36002;DHT22;22070;50.922;5.430;2022-08-19T07:19:37;19.20;99.90
36002;DHT22;22070;50.922;5.430;2022-08-19T07:22:04;19.20;99.90
36002;DHT22;22070;50.922;5.430;2022-08-19T07:24:30;19.50;99.90
36002;DHT22;22070;50.922;5.430;2022-08-19T07:26:58;19.60;99.90
36002;DHT22;22070;50.922;5.430;2022-08-19T07:29:27;19.60;99.90
36002;DHT22;22070;50.922;5.430;2022-08-19T07:31:54;19.70;99.90
36002;DHT22;22070;50.922;5.430;2022-08-19T07:34:25;19.70;99.90
36002;DHT22;22070;50.922;5.430;2022-08-19T07:36:51;19.80;99.90
36002;DHT22;22070;50.922;5.430;2022-08-19T07:39:21;19.90;99.90
36002;DHT22;22070;50.922;5.430;2022-08-19T07:41:48;20.00;99.90
36002;DHT22;22070;50.922;5.430;2022-08-19T07:44:14;20.20;99.90
36002;DHT22;22070;50.922;5.430;2022-08-19T07:46:43;20.30;99.90
36002;DHT22;22070;50.922;5.430;2022-08-19T07:49:10;20.20;99.90
36002;DHT22;22070;50.922;5.430;2022-08-19T07:51:54;20.30;99.90
36002;DHT22;22070;50.922;5.430;2022-08-19T07:54:24;20.20;99.90
36002;DHT22;22070;50.922;5.430;2022-08-19T07:56:50;20.40;99.90
36002;DHT22;22070;50.922;5.430;2022-08-19T07:59:17;20.60;99.90
36002;DHT22;22070;50.922;5.430;2022-08-19T08:01:43;20.60;99.90
36002;DHT22;22070;50.922;5.430;2022-08-19T08:04:09;20.70;99.90
36002;DHT22;22070;50.922;5.430;2022-08-19T08:06:53;20.80;99.90
36002;DHT22;22070;50.922;5.430;2022-08-19T08:09:39;20.70;99.90
36002;DHT22;22070;50.922;5.430;2022-08-19T08:12:11;20.90;99.90
36002;DHT22;22070;50.922;5.430;2022-08-19T08:14:41;21.10;99.90
36002;DHT22;22070;50.922;5.430;2022-08-19T08:17:08;21.40;99.90
36002;DHT22;22070;50.922;5.430;2022-08-19T08:19:35;21.40;99.90
36002;DHT22;22070;50.922;5.430;2022-08-19T08:22:02;21.30;99.90
36002;DHT22;22070;50.922;5.430;2022-08-19T08:24:30;21.40;99.90
36002;DHT22;22070;50.922;5.430;2022-08-19T08:27:00;21.20;99.90
36002;DHT22;22070;50.922;5.430;2022-08-19T08:29:28;21.50;99.90
36002;DHT22;22070;50.922;5.430;2022-08-19T08:31:54;21.60;99.90
36002;DHT22;22070;50.922;5.430;2022-08-19T08:34:20;21.60;99.90
36002;DHT22;22070;50.922;5.430;2022-08-19T08:36:46;21.60;99.90
36002;DHT22;22070;50.922;5.430;2022-08-19T08:39:16;21.70;99.90
36002;DHT22;22070;50.922;5.430;2022-08-19T08:42:05;21.60;99.90
36002;DHT22;22070;50.922;5.430;2022-08-19T08:45:00;21.60;99.90
36002;DHT22;22070;50.922;5.430;2022-08-19T08:47:30;21.50;99.90
36002;DHT22;22070;50.922;5.430;2022-08-19T08:50:05;21.70;99.90
36002;DHT22;22070;50.922;5.430;2022-08-19T08:52:36;21.90;99.90
36002;DHT22;22070;50.922;5.430;2022-08-19T08:55:09;22.10;99.90
36002;DHT22;22070;50.922;5.430;2022-08-19T08:57:44;21.60;99.90
36002;DHT22;22070;50.922;5.430;2022-08-19T09:00:37;21.10;99.90
36002;DHT22;22070;50.922;5.430;2022-08-19T09:03:08;20.80;99.90
36002;DHT22;22070;50.922;5.430;2022-08-19T09:08:47;20.70;99.90
36002;DHT22;22070;50.922;5.430;2022-08-19T09:11:55;20.90;99.90
36002;DHT22;22070;50.922;5.430;2022-08-19T09:16:53;21.10;99.90
36002;DHT22;22070;50.922;5.430;2022-08-19T09:19:18;21.10;99.90
36002;DHT22;22070;50.922;5.430;2022-08-19T09:21:44;21.10;99.90
36002;DHT22;22070;50.922;5.430;2022-08-19T09:24:10;21.10;99.90
36002;DHT22;22070;50.922;5.430;2022-08-19T09:26:36;21.10;99.90
36002;DHT22;22070;50.922;5.430;2022-08-19T09:29:02;21.20;99.90
36002;DHT22;22070;50.922;5.430;2022-08-19T09:31:31;21.30;99.90
36002;DHT22;22070;50.922;5.430;2022-08-19T09:33:58;21.50;99.90
36002;DHT22;22070;50.922;5.430;2022-08-19T09:36:26;21.70;99.90
36002;DHT22;22070;50.922;5.430;2022-08-19T09:38:54;21.80;99.90
36002;DHT22;22070;50.922;5.430;2022-08-19T09:41:23;22.00;99.90
36002;DHT22;22070;50.922;5.430;2022-08-19T09:43:51;22.40;99.90
36002;DHT22;22070;50.922;5.430;2022-08-19T09:46:18;22.50;99.90
36002;DHT22;22070;50.922;5.430;2022-08-19T09:48:46;22.50;99.90
36002;DHT22;22070;50.922;5.430;2022-08-19T09:51:15;22.40;99.90
36002;DHT22;22070;50.922;5.430;2022-08-19T09:53:43;22.50;99.90
36002;DHT22;22070;50.922;5.430;2022-08-19T09:56:09;22.60;99.90
36002;DHT22;22070;50.922;5.430;2022-08-19T09:58:35;23.00;99.90
36002;DHT22;22070;50.922;5.430;2022-08-19T10:01:01;23.00;99.90
36002;DHT22;22070;50.922;5.430;2022-08-19T10:03:29;23.30;99.90
36002;DHT22;22070;50.922;5.430;2022-08-19T10:05:56;23.20;99.90
36002;DHT22;22070;50.922;5.430;2022-08-19T10:08:26;23.60;99.90
36002;DHT22;22070;50.922;5.430;2022-08-19T10:10:53;23.80;99.90
36002;DHT22;22070;50.922;5.430;2022-08-19T10:13:22;23.90;99.90
36002;DHT22;22070;50.922;5.430;2022-08-19T10:15:49;23.90;99.90
36002;DHT22;22070;50.922;5.430;2022-08-19T10:18:19;23.50;99.90
36002;DHT22;22070;50.922;5.430;2022-08-19T10:20:46;23.50;99.90
36002;DHT22;22070;50.922;5.430;2022-08-19T10:23:13;23.10;99.90
36002;DHT22;22070;50.922;5.430;2022-08-19T10:25:41;23.00;99.90
36002;DHT22;22070;50.922;5.430;2022-08-19T10:28:07;23.10;99.90
36002;DHT22;22070;50.922;5.430;2022-08-19T10:30:35;23.30;99.90
36002;DHT22;22070;50.922;5.430;2022-08-19T10:33:00;23.50;99.90
36002;DHT22;22070;50.922;5.430;2022-08-19T10:35:26;23.80;99.90
36002;DHT22;22070;50.922;5.430;2022-08-19T10:37:53;24.00;99.90
36002;DHT22;22070;50.922;5.430;2022-08-19T10:40:19;24.10;99.90
36002;DHT22;22070;50.922;5.430;2022-08-19T10:42:45;24.40;99.90
36002;DHT22;22070;50.922;5.430;2022-08-19T10:45:10;24.50;99.90
36002;DHT22;22070;50.922;5.430;2022-08-19T10:47:36;24.60;99.90
36002;DHT22;22070;50.922;5.430;2022-08-19T10:50:03;24.60;99.90
36002;DHT22;22070;50.922;5.430;2022-08-19T10:52:49;24.40;99.90
36002;DHT22;22070;50.922;5.430;2022-08-19T10:55:17;24.60;99.90
36002;DHT22;22070;50.922;5.430;2022-08-19T10:58:02;24.80;99.90
36002;DHT22;22070;50.922;5.430;2022-08-19T11:00:27;24.80;99.90
36002;DHT22;22070;50.922;5.430;2022-08-19T11:02:53;25.00;99.90
36002;DHT22;22070;50.922;5.430;2022-08-19T11:05:19;25.00;99.90
36002;DHT22;22070;50.922;5.430;2022-08-19T11:07:46;24.40;99.90
36002;DHT22;22070;50.922;5.430;2022-08-19T11:10:14;24.70;99.90
36002;DHT22;22070;50.922;5.430;2022-08-19T11:12:40;24.50;99.90
36002;DHT22;22070;50.922;5.430;2022-08-19T11:15:09;24.90;99.90
36002;DHT22;22070;50.922;5.430;2022-08-19T11:17:37;25.10;99.90
36002;DHT22;22070;50.922;5.430;2022-08-19T11:20:06;25.00;99.90
36002;DHT22;22070;50.922;5.430;2022-08-19T11:22:32;25.00;99.90
36002;DHT22;22070;50.922;5.430;2022-08-19T11:24:58;25.00;99.90
36002;DHT22;22070;50.922;5.430;2022-08-19T11:27:23;25.00;99.90
36002;DHT22;22070;50.922;5.430;2022-08-19T11:29:49;25.00;99.90
36002;DHT22;22070;50.922;5.430;2022-08-19T11:32:14;25.00;99.90
36002;DHT22;22070;50.922;5.430;2022-08-19T11:34:41;25.00;99.90
36002;DHT22;22070;50.922;5.430;2022-08-19T11:37:07;24.90;99.90
36002;DHT22;22070;50.922;5.430;2022-08-19T11:39:35;24.80;99.90
36002;DHT22;22070;50.922;5.430;2022-08-19T11:42:03;25.10;99.90
36002;DHT22;22070;50.922;5.430;2022-08-19T11:44:50;25.40;99.90
36002;DHT22;22070;50.922;5.430;2022-08-19T11:47:15;25.80;99.90
36002;DHT22;22070;50.922;5.430;2022-08-19T11:49:41;25.80;99.90
36002;DHT22;22070;50.922;5.430;2022-08-19T11:52:08;25.70;99.90
36002;DHT22;22070;50.922;5.430;2022-08-19T11:54:33;25.60;99.90
36002;DHT22;22070;50.922;5.430;2022-08-19T11:56:59;25.40;99.90
36002;DHT22;22070;50.922;5.430;2022-08-19T11:59:26;25.40;99.90
36002;DHT22;22070;50.922;5.430;2022-08-19T12:01:52;25.80;99.90
36002;DHT22;22070;50.922;5.430;2022-08-19T12:04:18;26.30;99.90
36002;DHT22;22070;50.922;5.430;2022-08-19T12:06:43;26.40;99.90
36002;DHT22;22070;50.922;5.430;2022-08-19T12:09:10;26.50;99.90
36002;DHT22;22070;50.922;5.430;2022-08-19T12:11:37;26.50;99.90
36002;DHT22;22070;50.922;5.430;2022-08-19T12:14:03;26.10;99.90
36002;DHT22;22070;50.922;5.430;2022-08-19T12:16:30;26.10;99.90
36002;DHT22;22070;50.922;5.430;2022-08-19T12:18:58;25.90;99.90
36002;DHT22;22070;50.922;5.430;2022-08-19T12:21:28;26.00;99.90
36002;DHT22;22070;50.922;5.430;2022-08-19T12:23:56;26.20;99.90
36002;DHT22;22070;50.922;5.430;2022-08-19T12:26:22;26.10;99.90
36002;DHT22;22070;50.922;5.430;2022-08-19T12:28:48;26.40;99.90
36002;DHT22;22070;50.922;5.430;2022-08-19T12:31:14;25.80;99.90
36002;DHT22;22070;50.922;5.430;2022-08-19T12:33:41;26.00;99.90
36002;DHT22;22070;50.922;5.430;2022-08-19T12:36:07;26.10;99.90
36002;DHT22;22070;50.922;5.430;2022-08-19T12:38:34;26.10;99.90
36002;DHT22;22070;50.922;5.430;2022-08-19T12:41:00;26.20;99.90
36002;DHT22;22070;50.922;5.430;2022-08-19T12:43:26;26.30;99.90
36002;DHT22;22070;50.922;5.430;2022-08-19T12:45:52;26.20;99.90
36002;DHT22;22070;50.922;5.430;2022-08-19T12:48:18;25.60;99.90
36002;DHT22;22070;50.922;5.430;2022-08-19T12:50:44;26.10;99.90
36002;DHT22;22070;50.922;5.430;2022-08-19T12:53:11;26.30;99.90
36002;DHT22;22070;50.922;5.430;2022-08-19T12:55:36;26.30;99.90
36002;DHT22;22070;50.922;5.430;2022-08-19T12:58:02;25.80;99.90
36002;DHT22;22070;50.922;5.430;2022-08-19T13:00:29;25.70;99.90
36002;DHT22;22070;50.922;5.430;2022-08-19T13:02:56;25.40;99.90
36002;DHT22;22070;50.922;5.430;2022-08-19T13:05:24;25.30;99.90
36002;DHT22;22070;50.922;5.430;2022-08-19T13:07:52;25.40;99.90
36002;DHT22;22070;50.922;5.430;2022-08-19T13:10:20;25.40;99.90
36002;DHT22;22070;50.922;5.430;2022-08-19T13:12:48;25.30;99.90
36002;DHT22;22070;50.922;5.430;2022-08-19T13:15:15;25.40;99.90
36002;DHT22;22070;50.922;5.430;2022-08-19T13:17:45;25.00;99.90
36002;DHT22;22070;50.922;5.430;2022-08-19T13:20:12;24.80;99.90
36002;DHT22;22070;50.922;5.430;2022-08-19T13:22:38;24.60;99.90
36002;DHT22;22070;50.922;5.430;2022-08-19T13:25:05;24.60;99.90
36002;DHT22;22070;50.922;5.430;2022-08-19T13:27:31;24.50;99.90
36002;DHT22;22070;50.922;5.430;2022-08-19T13:29:56;24.60;99.90
36002;DHT22;22070;50.922;5.430;2022-08-19T13:32:40;24.70;99.90
36002;DHT22;22070;50.922;5.430;2022-08-19T13:35:24;24.80;99.90
36002;DHT22;22070;50.922;5.430;2022-08-19T13:37:50;24.70;99.90
36002;DHT22;22070;50.922;5.430;2022-08-19T13:40:20;24.70;99.90
36002;DHT22;22070;50.922;5.430;2022-08-19T13:42:50;24.80;99.90
36002;DHT22;22070;50.922;5.430;2022-08-19T13:45:19;24.80;99.90
36002;DHT22;22070;50.922;5.430;2022-08-19T13:47:49;24.70;99.90
36002;DHT22;22070;50.922;5.430;2022-08-19T13:50:21;24.40;99.90
36002;DHT22;22070;50.922;5.430;2022-08-19T13:52:48;24.40;99.90
36002;DHT22;22070;50.922;5.430;2022-08-19T13:55:14;24.30;99.90
36002;DHT22;22070;50.922;5.430;2022-08-19T13:57:41;24.50;99.90
36002;DHT22;22070;50.922;5.430;2022-08-19T14:00:14;24.60;99.90
36002;DHT22;22070;50.922;5.430;2022-08-19T14:02:40;24.50;99.90
36002;DHT22;22070;50.922;5.430;2022-08-19T14:05:08;24.80;99.90
36002;DHT22;22070;50.922;5.430;2022-08-19T14:07:34;25.20;99.90
36002;DHT22;22070;50.922;5.430;2022-08-19T14:10:02;25.40;99.90
36002;DHT22;22070;50.922;5.430;2022-08-19T14:12:28;25.60;99.90
36002;DHT22;22070;50.922;5.430;2022-08-19T14:14:53;25.40;99.90
36002;DHT22;22070;50.922;5.430;2022-08-19T14:17:19;25.20;99.90
36002;DHT22;22070;50.922;5.430;2022-08-19T14:19:44;25.40;99.90
36002;DHT22;22070;50.922;5.430;2022-08-19T14:22:10;25.60;99.90
36002;DHT22;22070;50.922;5.430;2022-08-19T14:24:39;25.90;99.90
36002;DHT22;22070;50.922;5.430;2022-08-19T14:27:05;26.30;99.90
36002;DHT22;22070;50.922;5.430;2022-08-19T14:29:32;26.50;99.90
36002;DHT22;22070;50.922;5.430;2022-08-19T14:31:57;26.50;99.90
36002;DHT22;22070;50.922;5.430;2022-08-19T14:34:24;26.50;99.90
36002;DHT22;22070;50.922;5.430;2022-08-19T14:36:50;26.40;99.90
36002;DHT22;22070;50.922;5.430;2022-08-19T14:39:16;26.80;99.90
36002;DHT22;22070;50.922;5.430;2022-08-19T14:41:42;26.80;99.90
36002;DHT22;22070;50.922;5.430;2022-08-19T14:44:07;26.50;99.90
36002;DHT22;22070;50.922;5.430;2022-08-19T14:46:35;26.40;99.90
36002;DHT22;22070;50.922;5.430;2022-08-19T14:49:01;26.70;99.90
36002;DHT22;22070;50.922;5.430;2022-08-19T14:51:27;26.40;99.90
36002;DHT22;22070;50.922;5.430;2022-08-19T14:53:53;26.40;99.90
36002;DHT22;22070;50.922;5.430;2022-08-19T14:56:22;26.40;99.90
36002;DHT22;22070;50.922;5.430;2022-08-19T14:58:48;26.70;99.90
36002;DHT22;22070;50.922;5.430;2022-08-19T15:01:17;27.00;99.90
36002;DHT22;22070;50.922;5.430;2022-08-19T15:03:44;26.60;99.90
36002;DHT22;22070;50.922;5.430;2022-08-19T15:06:09;26.70;99.90
36002;DHT22;22070;50.922;5.430;2022-08-19T15:08:36;27.00;99.90
36002;DHT22;22070;50.922;5.430;2022-08-19T15:11:08;27.20;99.90
36002;DHT22;22070;50.922;5.430;2022-08-19T15:13:35;26.80;99.90
36002;DHT22;22070;50.922;5.430;2022-08-19T15:16:01;26.70;99.90
36002;DHT22;22070;50.922;5.430;2022-08-19T15:18:27;26.40;99.90
36002;DHT22;22070;50.922;5.430;2022-08-19T15:20:53;26.50;99.90
36002;DHT22;22070;50.922;5.430;2022-08-19T15:23:20;26.50;99.90
36002;DHT22;22070;50.922;5.430;2022-08-19T15:25:46;26.80;99.90
36002;DHT22;22070;50.922;5.430;2022-08-19T15:28:13;27.10;99.90
36002;DHT22;22070;50.922;5.430;2022-08-19T15:30:41;26.90;99.90
36002;DHT22;22070;50.922;5.430;2022-08-19T15:33:10;26.60;99.90
36002;DHT22;22070;50.922;5.430;2022-08-19T15:35:40;26.20;99.90
36002;DHT22;22070;50.922;5.430;2022-08-19T15:38:07;26.00;99.90
36002;DHT22;22070;50.922;5.430;2022-08-19T15:40:33;25.80;99.90
36002;DHT22;22070;50.922;5.430;2022-08-19T15:42:59;25.90;99.90
36002;DHT22;22070;50.922;5.430;2022-08-19T15:45:25;26.00;99.90